YCA weather

Courtenay Airpark
Courtenay, British Columbia, Canada

Public forecast

Using degrees Celsius for public forecast. Weather courtesy of forecast.io.

METAR (pilot weather report)

Closest report is Comox Airport, 4.1 nm (7.7 km) ENE. Retrieved 2019/04/19 23:00 UTC (59 minutes ago):

CYQQ 192300Z 02007KT 20SM FEW020 SCT060 BKN080 13/05 A3000 RMK CU1SC2AC2 SLP159

TAF (pilot weather forecast)

Closest forecast is Comox Airport, 4.1 nm (7.7 km) ENE. Retrieved 2019/04/19 18:42 UTC (5 hours ago):

TAF CYQQ 191739Z 1918/2018 34010KT P6SM FEW006 BKN040 FM192200 36012KT P6SM SCT040 TEMPO 1922/1924 BKN040 BECMG 2000/2002 33012G22KT FM201400 33010KT P6SM FEW020 RMK NXT FCST BY 200000Z